Time,TemperatureF,DewpointF,PressureIn,WindDirection,WindDirectionDegrees,WindSpeedMPH,WindSpeedGustMPH,Humidity,HourlyPrecipIn,Conditions,Clouds,dailyrainin,SoftwareType,DateUTC
2013-05-15 00:05:00,60.6,48.4,29.90,SSW,202,1.1,-999.0,64,-99.99,,,0.00,Acu-Link.com,2013-05-15 04:05:00,
2013-05-15 00:20:00,60.4,48.6,29.89,East,90,0.0,-999.0,65,-99.99,,,0.00,Acu-Link.com,2013-05-15 04:20:00,
2013-05-15 00:35:00,60.1,48.3,29.90,WNW,292,0.0,-999.0,65,-99.99,,,0.00,Acu-Link.com,2013-05-15 04:35:00,
2013-05-15 00:50:00,59.7,49.1,29.89,SE,135,0.0,-999.0,68,-99.99,,,0.00,Acu-Link.com,2013-05-15 04:50:00,
2013-05-15 01:05:00,59.9,48.9,29.90,WSW,247,1.7,-999.0,67,-99.99,,,0.00,Acu-Link.com,2013-05-15 05:05:00,
2013-05-15 01:20:00,60.1,49.1,29.89,East,90,0.0,-999.0,67,-99.99,,,0.00,Acu-Link.com,2013-05-15 05:20:00,
2013-05-15 01:35:00,59.9,48.9,29.89,NNE,22,0.0,-999.0,67,-99.99,,,0.00,Acu-Link.com,2013-05-15 05:35:00,
2013-05-15 01:50:00,59.5,48.5,29.88,ESE,112,0.0,-999.0,67,-99.99,,,0.00,Acu-Link.com,2013-05-15 05:50:00,
2013-05-15 02:05:00,59.0,49.2,29.88,NE,45,0.0,-999.0,70,-99.99,,,0.00,Acu-Link.com,2013-05-15 06:05:00,
2013-05-15 02:21:00,58.6,49.2,29.88,WSW,247,0.0,-999.0,71,-99.99,,,0.00,Acu-Link.com,2013-05-15 06:21:00,
2013-05-15 02:36:00,58.5,49.5,29.87,ESE,112,0.0,-999.0,72,-99.99,,,0.00,Acu-Link.com,2013-05-15 06:36:00,
2013-05-15 02:51:00,58.5,49.5,29.87,North,0,0.0,-999.0,72,-99.99,,,0.00,Acu-Link.com,2013-05-15 06:51:00,
2013-05-15 03:06:00,58.1,49.5,29.88,ENE,67,0.0,-999.0,73,-99.99,,,0.00,Acu-Link.com,2013-05-15 07:06:00,
2013-05-15 03:21:00,57.7,49.5,29.88,East,90,0.0,-999.0,74,-99.99,,,0.00,Acu-Link.com,2013-05-15 07:21:00,
2013-05-15 03:36:00,57.4,49.2,29.88,West,270,0.0,-999.0,74,-99.99,,,0.00,Acu-Link.com,2013-05-15 07:36:00,
2013-05-15 03:51:00,57.2,49.3,29.88,West,270,0.0,-999.0,75,-99.99,,,0.00,Acu-Link.com,2013-05-15 07:51:00,
2013-05-15 04:06:00,56.8,49.0,29.88,SSE,157,0.0,-999.0,75,-99.99,,,0.00,Acu-Link.com,2013-05-15 08:06:00,
2013-05-15 04:22:00,56.7,48.9,29.88,West,270,0.0,-999.0,75,-99.99,,,0.00,Acu-Link.com,2013-05-15 08:22:00,
2013-05-15 04:37:00,56.1,48.3,29.87,West,270,0.0,-999.0,75,-99.99,,,0.00,Acu-Link.com,2013-05-15 08:37:00,
2013-05-15 04:52:00,55.6,48.8,29.86,NE,45,0.0,-999.0,78,-99.99,,,0.00,Acu-Link.com,2013-05-15 08:52:00,
2013-05-15 05:07:00,55.0,48.6,29.88,South,180,0.0,-999.0,79,-99.99,,,0.00,Acu-Link.com,2013-05-15 09:07:00,
2013-05-15 05:22:00,54.5,49.1,29.88,West,270,0.0,-999.0,82,-99.99,,,0.00,Acu-Link.com,2013-05-15 09:22:00,
2013-05-15 05:37:00,54.5,48.8,29.88,ESE,112,0.0,-999.0,81,-99.99,,,0.00,Acu-Link.com,2013-05-15 09:37:00,
2013-05-15 05:52:00,54.1,48.7,29.89,North,0,0.0,-999.0,82,-99.99,,,0.00,Acu-Link.com,2013-05-15 09:52:00,
2013-05-15 06:08:00,53.8,48.4,29.89,East,90,0.0,-999.0,82,-99.99,,,0.00,Acu-Link.com,2013-05-15 10:08:00,
2013-05-15 06:23:00,53.2,48.5,29.89,SW,225,0.0,-999.0,84,-99.99,,,0.00,Acu-Link.com,2013-05-15 10:23:00,
2013-05-15 06:38:00,53.2,48.5,29.90,WNW,292,0.0,-999.0,84,-99.99,,,0.00,Acu-Link.com,2013-05-15 10:38:00,
2013-05-15 06:53:00,53.2,48.2,29.90,East,90,0.0,-999.0,83,-99.99,,,0.00,Acu-Link.com,2013-05-15 10:53:00,
2013-05-15 07:08:00,53.2,48.2,29.91,East,90,0.0,-999.0,83,-99.99,,,0.00,Acu-Link.com,2013-05-15 11:08:00,
2013-05-15 07:23:00,53.8,49.1,29.91,WSW,247,0.0,-999.0,84,-99.99,,,0.00,Acu-Link.com,2013-05-15 11:23:00,
2013-05-15 07:38:00,54.5,50.1,29.92,East,90,0.0,-999.0,85,-99.99,,,0.00,Acu-Link.com,2013-05-15 11:38:00,
2013-05-15 07:53:00,56.1,52.0,29.91,NE,45,0.0,-999.0,86,-99.99,,,0.00,Acu-Link.com,2013-05-15 11:53:00,
2013-05-15 08:08:00,57.9,54.1,29.91,NW,315,1.7,-999.0,87,-99.99,,,0.00,Acu-Link.com,2013-05-15 12:08:00,
2013-05-15 08:23:00,60.3,55.1,29.91,SSW,202,0.0,-999.0,83,-99.99,,,0.00,Acu-Link.com,2013-05-15 12:23:00,
2013-05-15 08:39:00,63.0,55.3,29.92,NNE,22,1.1,-999.0,76,-99.99,,,0.00,Acu-Link.com,2013-05-15 12:39:00,
2013-05-15 08:54:00,64.9,55.3,29.92,WNW,292,2.7,-999.0,71,-99.99,,,0.00,Acu-Link.com,2013-05-15 12:54:00,
2013-05-15 09:09:00,67.1,56.2,29.92,SSW,202,2.2,-999.0,68,-99.99,,,0.00,Acu-Link.com,2013-05-15 13:09:00,
2013-05-15 09:24:00,69.8,57.1,29.92,East,90,1.1,-999.0,64,-99.99,,,0.00,Acu-Link.com,2013-05-15 13:24:00,
2013-05-15 09:39:00,76.6,56.6,29.92,South,180,1.1,-999.0,50,-99.99,,,0.00,Acu-Link.com,2013-05-15 13:39:00,
2013-05-15 10:09:00,78.1,55.6,29.91,WSW,247,1.7,-999.0,46,-99.99,,,0.00,Acu-Link.com,2013-05-15 14:09:00,
2013-05-15 10:24:00,79.7,56.5,29.91,NW,315,1.1,-999.0,45,-99.99,,,0.00,Acu-Link.com,2013-05-15 14:24:00,
2013-05-15 10:39:00,80.4,55.8,29.91,SSE,157,1.1,-999.0,43,-99.99,,,0.00,Acu-Link.com,2013-05-15 14:39:00,
2013-05-15 11:25:00,84.2,56.5,29.90,NNE,22,1.1,-999.0,39,-99.99,,,0.00,Acu-Link.com,2013-05-15 15:25:00,
2013-05-15 11:40:00,84.9,57.9,29.90,SSE,157,1.7,-999.0,40,-99.99,,,0.00,Acu-Link.com,2013-05-15 15:40:00,
2013-05-15 11:55:00,84.7,57.0,29.90,SSE,157,1.7,-999.0,39,-99.99,,,0.00,Acu-Link.com,2013-05-15 15:55:00,
2013-05-15 12:10:00,87.1,55.3,29.90,SSE,157,2.2,-999.0,34,-99.99,,,0.00,Acu-Link.com,2013-05-15 16:10:00,
2013-05-15 12:25:00,87.8,55.1,29.89,SSE,157,1.7,-999.0,33,-99.99,,,0.00,Acu-Link.com,2013-05-15 16:25:00,
2013-05-15 12:40:00,88.3,55.5,29.88,SSE,157,1.7,-999.0,33,-99.99,,,0.00,Acu-Link.com,2013-05-15 16:40:00,
2013-05-15 12:55:00,88.2,53.7,29.88,South,180,1.7,-999.0,31,-99.99,,,0.00,Acu-Link.com,2013-05-15 16:55:00,
2013-05-15 13:11:00,90.1,52.6,29.87,South,180,2.2,-999.0,28,-99.99,,,0.00,Acu-Link.com,2013-05-15 17:11:00,
2013-05-15 13:41:00,89.4,56.5,29.85,ESE,112,1.1,-999.0,33,-99.99,,,0.00,Acu-Link.com,2013-05-15 17:41:00,
2013-05-15 13:56:00,91.4,53.7,29.84,ESE,112,1.1,-999.0,28,-99.99,,,0.00,Acu-Link.com,2013-05-15 17:56:00,
2013-05-15 14:11:00,90.3,52.7,29.84,ESE,112,2.2,-999.0,28,-99.99,,,0.00,Acu-Link.com,2013-05-15 18:11:00,
2013-05-15 14:26:00,91.0,51.3,29.83,SSW,202,1.7,-999.0,26,-99.99,,,0.00,Acu-Link.com,2013-05-15 18:26:00,
2013-05-15 14:42:00,91.0,52.3,29.83,West,270,1.1,-999.0,27,-99.99,,,0.00,Acu-Link.com,2013-05-15 18:42:00,
2013-05-15 14:57:00,91.4,52.7,29.83,West,270,3.2,-999.0,27,-99.99,,,0.00,Acu-Link.com,2013-05-15 18:57:00,
2013-05-15 15:12:00,92.3,54.4,29.82,WNW,292,2.2,-999.0,28,-99.99,,,0.00,Acu-Link.com,2013-05-15 19:12:00,
2013-05-15 15:42:00,91.8,52.0,29.81,South,180,3.7,-999.0,26,-99.99,,,0.00,Acu-Link.com,2013-05-15 19:42:00,
2013-05-15 16:12:00,90.0,52.5,29.80,West,270,4.2,-999.0,28,-99.99,,,0.00,Acu-Link.com,2013-05-15 20:12:00,
2013-05-15 16:27:00,95.0,51.3,29.79,SSW,202,1.7,-999.0,23,-99.99,,,0.00,Acu-Link.com,2013-05-15 20:27:00,
2013-05-15 16:42:00,94.3,51.9,29.79,SW,225,0.0,-999.0,24,-99.99,,,0.00,Acu-Link.com,2013-05-15 20:42:00,
2013-05-15 16:57:00,93.2,52.1,29.78,SSW,202,0.0,-999.0,25,-99.99,,,0.00,Acu-Link.com,2013-05-15 20:57:00,
2013-05-15 17:13:00,92.5,51.5,29.78,SSE,157,1.7,-999.0,25,-99.99,,,0.00,Acu-Link.com,2013-05-15 21:13:00,
2013-05-15 17:28:00,95.2,51.5,29.77,SW,225,1.7,-999.0,23,-99.99,,,0.00,Acu-Link.com,2013-05-15 21:28:00,
2013-05-15 17:58:00,93.6,51.3,29.77,SSW,202,2.2,-999.0,24,-99.99,,,0.00,Acu-Link.com,2013-05-15 21:58:00,
2013-05-15 18:13:00,93.7,51.4,29.76,SW,225,3.2,-999.0,24,-99.99,,,0.00,Acu-Link.com,2013-05-15 22:13:00,
2013-05-15 18:28:00,94.1,50.6,29.76,WSW,247,0.0,-999.0,23,-99.99,,,0.00,Acu-Link.com,2013-05-15 22:28:00,
2013-05-15 18:43:00,92.7,49.4,29.76,SSW,202,2.2,-999.0,23,-99.99,,,0.00,Acu-Link.com,2013-05-15 22:43:00,
2013-05-15 18:58:00,92.1,50.1,29.76,SW,225,1.7,-999.0,24,-99.99,,,0.00,Acu-Link.com,2013-05-15 22:58:00,
2013-05-15 19:13:00,91.0,51.3,29.76,SW,225,1.1,-999.0,26,-99.99,,,0.00,Acu-Link.com,2013-05-15 23:13:00,
2013-05-15 19:29:00,87.8,54.2,29.76,SW,225,1.7,-999.0,32,-99.99,,,0.00,Acu-Link.com,2013-05-15 23:29:00,
2013-05-15 19:44:00,85.5,54.7,29.76,SSW,202,0.0,-999.0,35,-99.99,,,0.00,Acu-Link.com,2013-05-15 23:44:00,
2013-05-15 19:59:00,83.3,55.7,29.77,WNW,292,0.0,-999.0,39,-99.99,,,0.00,Acu-Link.com,2013-05-15 23:59:00,
2013-05-15 20:14:00,81.5,55.5,29.77,ESE,112,0.0,-999.0,41,-99.99,,,0.00,Acu-Link.com,2013-05-16 00:14:00,
2013-05-15 20:29:00,79.9,56.0,29.76,WSW,247,0.0,-999.0,44,-99.99,,,0.00,Acu-Link.com,2013-05-16 00:29:00,
2013-05-15 20:44:00,78.6,56.1,29.77,ESE,112,0.0,-999.0,46,-99.99,,,0.00,Acu-Link.com,2013-05-16 00:44:00,
2013-05-15 21:14:00,75.9,56.5,29.77,NNW,337,0.0,-999.0,51,-99.99,,,0.00,Acu-Link.com,2013-05-16 01:14:00,
2013-05-15 21:29:00,74.5,57.3,29.78,NE,45,0.0,-999.0,55,-99.99,,,0.00,Acu-Link.com,2013-05-16 01:29:00,
2013-05-15 21:45:00,73.4,57.7,29.78,NE,45,0.0,-999.0,58,-99.99,,,0.00,Acu-Link.com,2013-05-16 01:45:00,
2013-05-15 22:00:00,72.3,56.7,29.78,NE,45,0.0,-999.0,58,-99.99,,,0.00,Acu-Link.com,2013-05-16 02:00:00,
2013-05-15 22:15:00,71.1,57.4,29.78,ESE,112,0.0,-999.0,62,-99.99,,,0.00,Acu-Link.com,2013-05-16 02:15:00,
2013-05-15 23:00:00,68.4,57.8,29.78,WNW,292,0.0,-999.0,69,-99.99,,,0.00,Acu-Link.com,2013-05-16 03:00:00,
2013-05-15 23:15:00,67.5,57.8,29.78,ENE,67,0.0,-999.0,71,-99.99,,,0.00,Acu-Link.com,2013-05-16 03:15:00,
2013-05-15 23:30:00,66.6,58.0,29.78,SE,135,0.0,-999.0,74,-99.99,,,0.00,Acu-Link.com,2013-05-16 03:30:00,
2013-05-15 23:45:00,66.6,57.3,29.78,WNW,292,2.2,-999.0,72,-99.99,,,0.00,Acu-Link.com,2013-05-16 03:45:00,